createdAt,value
2016-12-22T00:00:48.969Z,19.01
2016-12-22T00:01:58.933Z,19
2016-12-22T00:03:09.234Z,18.96
2016-12-22T00:04:19.205Z,18.98
2016-12-22T00:05:29.167Z,18.98
2016-12-22T00:06:39.426Z,19.04
2016-12-22T00:07:49.378Z,18.98
2016-12-22T00:08:59.353Z,18.98
2016-12-22T00:10:09.315Z,19.04
2016-12-22T00:11:19.590Z,18.98
2016-12-22T00:12:29.228Z,19.01
2016-12-22T00:13:38.620Z,19.01
2016-12-22T00:14:48.582Z,19
2016-12-22T00:15:58.539Z,18.96
2016-12-22T00:17:08.517Z,19.04
2016-12-22T00:18:18.487Z,19.01
2016-12-22T00:19:28.758Z,18.98
2016-12-22T00:20:38.710Z,19.01
2016-12-22T00:21:48.665Z,19
2016-12-22T00:22:58.928Z,19.01
2016-12-22T00:24:08.899Z,19
2016-12-22T00:25:19.164Z,19.04
2016-12-22T00:26:29.113Z,19.04
2016-12-22T00:27:39.356Z,18.96
2016-12-22T00:28:49.298Z,19.01
2016-12-22T00:29:59.570Z,18.96
2016-12-22T00:31:09.516Z,18.98
2016-12-22T00:32:19.776Z,18.98
2016-12-22T00:33:29.740Z,19.04
2016-12-22T00:34:39.593Z,18.91
2016-12-22T00:35:49.542Z,19
2016-12-22T00:36:59.193Z,18.98
2016-12-22T00:38:09.165Z,18.89
2016-12-22T00:39:19.433Z,18.85
2016-12-22T00:40:29.689Z,19.01
2016-12-22T00:41:39.632Z,18.97
2016-12-22T00:42:49.273Z,19
2016-12-22T00:43:59.545Z,19
2016-12-22T00:45:08.896Z,18.98
2016-12-22T00:46:19.158Z,18.91
2016-12-22T00:47:29.135Z,19.07
2016-12-22T00:48:38.153Z,18.96
2016-12-22T00:49:48.422Z,18.97
2016-12-22T00:50:58.681Z,19.01
2016-12-22T00:52:08.940Z,18.96
2016-12-22T00:53:18.592Z,18.96
2016-12-22T00:54:28.547Z,18.91
2016-12-22T00:55:38.814Z,18.96
2016-12-22T00:56:48.780Z,19
2016-12-22T00:57:58.742Z,18.89
2016-12-22T00:59:09.011Z,18.94
2016-12-22T01:00:18.969Z,18.97
2016-12-22T01:01:29.232Z,19.05
2016-12-22T01:02:39.500Z,18.94
2016-12-22T01:03:49.760Z,18.94
2016-12-22T01:04:59.715Z,18.96
2016-12-22T01:06:09.967Z,19
2016-12-22T01:07:20.240Z,18.97
2016-12-22T01:08:30.208Z,18.91
2016-12-22T01:09:40.163Z,18.98
2016-12-22T01:10:49.810Z,18.97
2016-12-22T01:11:59.452Z,18.94
2016-12-22T01:13:09.408Z,18.96
2016-12-22T01:14:19.353Z,18.96
2016-12-22T01:15:29.622Z,18.92
2016-12-22T01:16:39.571Z,18.96
2016-12-22T01:17:49.545Z,18.94
2016-12-22T01:18:59.193Z,18.92
2016-12-22T01:20:08.848Z,18.91
2016-12-22T01:21:18.809Z,18.94
2016-12-22T01:22:29.068Z,18.94
2016-12-22T01:23:39.321Z,18.94
2016-12-22T01:24:48.966Z,18.94
2016-12-22T01:25:59.238Z,18.96
2016-12-22T01:27:09.215Z,18.88
2016-12-22T01:28:19.168Z,18.91
2016-12-22T01:29:29.142Z,18.94
2016-12-22T01:30:39.411Z,18.88
2016-12-22T01:31:49.664Z,18.92
2016-12-22T01:32:59.942Z,18.89
2016-12-22T01:34:09.593Z,18.94
2016-12-22T01:35:19.859Z,18.94
2016-12-22T01:36:30.118Z,18.88
2016-12-22T01:37:40.070Z,18.88
2016-12-22T01:38:49.411Z,18.94
2016-12-22T01:39:59.368Z,18.98
2016-12-22T01:41:09.622Z,18.96
2016-12-22T01:42:19.885Z,18.91
2016-12-22T01:43:30.146Z,18.89
2016-12-22T01:44:40.109Z,18.91
2016-12-22T01:45:50.368Z,18.96
2016-12-22T01:47:00.317Z,18.94
2016-12-22T01:48:09.968Z,18.94
2016-12-22T01:49:19.923Z,18.88
2016-12-22T01:50:29.562Z,18.94
2016-12-22T01:51:39.504Z,18.91
2016-12-22T01:52:49.766Z,18.96
2016-12-22T01:54:00.041Z,18.96
2016-12-22T01:55:10.303Z,18.92
2016-12-22T01:56:20.242Z,18.91
2016-12-22T01:57:29.900Z,18.91
2016-12-22T01:58:40.150Z,18.91
2016-12-22T01:59:50.390Z,18.94
2016-12-22T02:01:00.642Z,18.89
2016-12-22T02:02:11.213Z,18.89
2016-12-22T02:03:21.471Z,18.94
2016-12-22T02:04:31.418Z,18.92
2016-12-22T02:05:41.683Z,18.96
2016-12-22T02:06:51.326Z,18.94
2016-12-22T02:08:00.966Z,18.88
2016-12-22T02:09:11.225Z,18.89
2016-12-22T02:10:21.485Z,18.91
2016-12-22T02:11:31.427Z,18.86
2016-12-22T02:12:41.066Z,18.89
2016-12-22T02:13:51.017Z,18.94
2016-12-22T02:15:00.976Z,18.94
2016-12-22T02:16:10.937Z,18.94
2016-12-22T02:17:21.190Z,18.92
2016-12-22T02:18:31.440Z,18.89
2016-12-22T02:19:40.784Z,18.89
2016-12-22T02:20:51.283Z,18.89
2016-12-22T02:22:01.235Z,18.89
2016-12-22T02:23:11.510Z,18.97
2016-12-22T02:24:21.453Z,18.94
2016-12-22T02:25:31.411Z,18.85
2016-12-22T02:26:41.043Z,18.91
2016-12-22T02:27:51.008Z,18.91
2016-12-22T02:29:01.289Z,18.96
2016-12-22T02:30:11.240Z,18.89
2016-12-22T02:31:21.491Z,18.89
2016-12-22T02:32:31.753Z,18.85
2016-12-22T02:33:42.009Z,18.94
2016-12-22T02:34:51.328Z,18.91
2016-12-22T02:36:01.574Z,18.92
2016-12-22T02:37:11.199Z,18.94
2016-12-22T02:38:21.167Z,18.92
2016-12-22T02:39:31.433Z,18.89
2016-12-22T02:40:41.078Z,18.89
2016-12-22T02:41:51.385Z,18.89
2016-12-22T02:43:01.647Z,18.89
2016-12-22T02:44:11.903Z,18.92
2016-12-22T02:45:21.862Z,18.88
2016-12-22T02:46:32.133Z,18.91
2016-12-22T02:47:41.469Z,18.94
2016-12-22T02:48:51.113Z,18.94
2016-12-22T02:50:01.062Z,18.88
2016-12-22T02:51:11.327Z,18.86
2016-12-22T02:52:21.598Z,18.92
2016-12-22T02:53:31.874Z,18.92
2016-12-22T02:54:41.559Z,18.85
2016-12-22T02:55:51.813Z,18.85
2016-12-22T02:57:01.777Z,18.88
2016-12-22T02:58:11.102Z,18.96
2016-12-22T02:59:20.783Z,18.94
2016-12-22T03:00:30.727Z,18.97
2016-12-22T03:01:40.670Z,18.89
2016-12-22T03:02:50.679Z,18.86
2016-12-22T03:04:00.629Z,18.94
2016-12-22T03:05:10.891Z,18.96
2016-12-22T03:06:20.849Z,18.92
2016-12-22T03:07:31.102Z,18.82
2016-12-22T03:08:41.050Z,18.83
2016-12-22T03:09:50.689Z,18.85
2016-12-22T03:11:00.942Z,18.88
2016-12-22T03:12:10.587Z,18.85
2016-12-22T03:13:20.890Z,18.83
2016-12-22T03:14:30.865Z,18.86
2016-12-22T03:15:40.808Z,18.85
2016-12-22T03:16:51.069Z,18.91
2016-12-22T03:18:00.394Z,18.92
2016-12-22T03:19:10.647Z,18.94
2016-12-22T03:20:20.292Z,18.96
2016-12-22T03:21:30.343Z,18.83
2016-12-22T03:22:40.289Z,18.85
2016-12-22T03:23:50.235Z,18.83
2016-12-22T03:25:00.497Z,18.86
2016-12-22T03:26:10.753Z,18.83
2016-12-22T03:27:20.705Z,18.89
2016-12-22T03:28:30.980Z,18.91
2016-12-22T03:29:41.249Z,18.82
2016-12-22T03:30:51.501Z,18.88
2016-12-22T03:32:01.147Z,18.83
2016-12-22T03:33:11.086Z,18.86
2016-12-22T03:34:20.734Z,18.89
2016-12-22T03:35:30.694Z,18.91
2016-12-22T03:36:40.957Z,18.94
2016-12-22T03:37:50.908Z,18.88
2016-12-22T03:39:00.845Z,18.86
2016-12-22T03:40:10.788Z,18.85
2016-12-22T03:41:20.730Z,18.83
2016-12-22T03:42:30.710Z,18.94
2016-12-22T03:43:40.664Z,18.88
2016-12-22T03:44:50.933Z,18.85
2016-12-22T03:46:00.252Z,18.88
2016-12-22T03:47:09.900Z,18.85
2016-12-22T03:48:19.846Z,18.83
2016-12-22T03:49:30.114Z,18.88
2016-12-22T03:50:40.060Z,18.86
2016-12-22T03:51:50.319Z,18.85
2016-12-22T03:53:00.265Z,18.85
2016-12-22T03:54:09.599Z,18.88
2016-12-22T03:55:19.888Z,18.89
2016-12-22T03:56:30.140Z,18.88
2016-12-22T03:57:40.092Z,18.86
2016-12-22T03:58:50.041Z,18.86
2016-12-22T04:00:00.326Z,18.88
2016-12-22T04:01:10.280Z,18.86
2016-12-22T04:02:20.546Z,18.88
2016-12-22T04:03:30.517Z,18.86
2016-12-22T04:04:40.171Z,18.86
2016-12-22T04:05:50.138Z,18.89
2016-12-22T04:07:00.078Z,18.86
2016-12-22T04:08:10.338Z,18.88
2016-12-22T04:09:20.619Z,18.86
2016-12-22T04:10:30.879Z,18.92
2016-12-22T04:11:40.204Z,18.91
2016-12-22T04:12:50.159Z,18.89
2016-12-22T04:14:00.108Z,18.83
2016-12-22T04:15:10.069Z,18.96
2016-12-22T04:16:20.319Z,18.86
2016-12-22T04:17:30.277Z,18.88
2016-12-22T04:18:40.229Z,18.91
2016-12-22T04:19:50.165Z,18.91
2016-12-22T04:21:00.107Z,18.92
2016-12-22T04:22:10.358Z,18.92
2016-12-22T04:23:19.682Z,18.89
2016-12-22T04:24:29.948Z,18.86
2016-12-22T04:25:38.992Z,18.85
2016-12-22T04:26:48.626Z,18.89
2016-12-22T04:27:58.578Z,18.88
2016-12-22T04:29:08.530Z,18.86
2016-12-22T04:30:18.473Z,18.83
2016-12-22T04:31:28.722Z,18.83
2016-12-22T04:32:38.981Z,18.86
2016-12-22T04:33:48.615Z,18.85
2016-12-22T04:34:58.578Z,18.83
2016-12-22T04:36:08.832Z,18.83
2016-12-22T04:37:19.099Z,18.85
2016-12-22T04:38:29.087Z,18.88
2016-12-22T04:39:39.035Z,18.85
2016-12-22T04:40:48.665Z,18.89
2016-12-22T04:41:58.911Z,18.92
2016-12-22T04:43:09.169Z,18.85
2016-12-22T04:44:18.812Z,18.92
2016-12-22T04:45:28.757Z,18.89
2016-12-22T04:46:38.702Z,18.92
2016-12-22T04:47:48.633Z,18.85
2016-12-22T04:48:58.875Z,18.83
2016-12-22T04:50:08.809Z,18.85
2016-12-22T04:51:19.062Z,18.91
2016-12-22T04:52:29.021Z,18.88
2016-12-22T04:53:38.367Z,18.88
2016-12-22T04:54:48.313Z,18.83
2016-12-22T04:55:58.252Z,18.85
2016-12-22T04:57:07.885Z,18.85
2016-12-22T04:58:17.865Z,18.92
2016-12-22T04:59:27.638Z,18.81
2016-12-22T05:00:37.574Z,18.88
2016-12-22T05:01:47.231Z,18.86
2016-12-22T05:02:57.178Z,18.89
2016-12-22T05:04:07.107Z,18.86
2016-12-22T05:05:17.036Z,18.83
2016-12-22T05:06:26.998Z,18.89
2016-12-22T05:07:37.257Z,18.85
2016-12-22T05:08:47.212Z,18.83
2016-12-22T05:09:56.854Z,18.89
2016-12-22T05:11:06.812Z,18.86
2016-12-22T05:12:16.745Z,18.88
2016-12-22T05:13:26.703Z,18.89
2016-12-22T05:14:36.953Z,18.83
2016-12-22T05:15:46.905Z,18.86
2016-12-22T05:16:57.145Z,18.86
2016-12-22T05:18:07.107Z,18.86
2016-12-22T05:19:16.732Z,18.86
2016-12-22T05:20:26.675Z,18.86
2016-12-22T05:21:36.624Z,18.94
2016-12-22T05:22:46.246Z,18.88
2016-12-22T05:23:55.890Z,18.89
2016-12-22T05:25:06.147Z,18.94
2016-12-22T05:26:16.406Z,18.86
2016-12-22T05:27:26.364Z,18.92
2016-12-22T05:28:35.997Z,18.88
2016-12-22T05:29:46.246Z,18.88
2016-12-22T05:30:56.499Z,18.92
2016-12-22T05:32:06.464Z,18.96
2016-12-22T05:33:16.597Z,18.96
2016-12-22T05:34:26.588Z,18.89
2016-12-22T05:35:36.543Z,18.91
2016-12-22T05:36:46.493Z,18.82
2016-12-22T05:37:56.758Z,18.92
2016-12-22T05:39:06.714Z,18.86
2016-12-22T05:40:16.348Z,18.83
2016-12-22T05:41:26.582Z,18.92
2016-12-22T05:42:36.515Z,18.86
2016-12-22T05:43:46.458Z,18.83
2016-12-22T05:44:56.432Z,18.89
2016-12-22T05:46:06.365Z,18.83
2016-12-22T05:47:16.316Z,18.88
2016-12-22T05:48:25.937Z,18.89
2016-12-22T05:49:35.574Z,18.89
2016-12-22T05:50:45.521Z,18.91
2016-12-22T05:51:55.790Z,18.82
2016-12-22T05:53:05.443Z,18.86
2016-12-22T05:54:14.778Z,18.88
2016-12-22T05:55:24.732Z,18.91
2016-12-22T05:56:34.998Z,18.88
2016-12-22T05:57:44.628Z,18.86
2016-12-22T05:58:53.952Z,18.83
2016-12-22T06:00:03.581Z,18.89
2016-12-22T06:01:13.866Z,18.85
2016-12-22T06:02:23.843Z,18.89
2016-12-22T06:03:33.795Z,18.83
2016-12-22T06:04:43.734Z,18.82
2016-12-22T06:05:53.689Z,18.88
2016-12-22T06:07:03.943Z,18.91
2016-12-22T06:08:13.572Z,18.83
2016-12-22T06:09:23.575Z,18.82
2016-12-22T06:10:33.831Z,18.88
2016-12-22T06:11:44.110Z,18.86
2016-12-22T06:12:55.052Z,18.92
2016-12-22T06:14:04.992Z,18.94
2016-12-22T06:15:14.945Z,18.83
2016-12-22T06:16:24.874Z,18.88
2016-12-22T06:17:35.124Z,18.88
2016-12-22T06:18:44.750Z,18.83
2016-12-22T06:19:55.148Z,18.88
2016-12-22T06:21:05.401Z,18.86
2016-12-22T06:22:15.041Z,18.91
2016-12-22T06:23:24.686Z,18.86
2016-12-22T06:24:34.973Z,18.83
2016-12-22T06:25:44.298Z,18.88
2016-12-22T06:26:54.259Z,18.92
2016-12-22T06:28:03.890Z,18.92
2016-12-22T06:29:14.155Z,18.89
2016-12-22T06:30:24.110Z,18.82
2016-12-22T06:31:34.055Z,18.88
2016-12-22T06:32:43.377Z,18.83
2016-12-22T06:33:53.643Z,18.83
2016-12-22T06:35:03.275Z,18.82
2016-12-22T06:36:13.221Z,18.83
2016-12-22T06:37:22.849Z,18.89
2016-12-22T06:38:32.509Z,18.89
2016-12-22T06:39:42.471Z,18.94
2016-12-22T06:40:52.731Z,18.85
2016-12-22T06:42:02.668Z,18.86
2016-12-22T06:43:12.907Z,18.88
2016-12-22T06:44:22.861Z,18.85
2016-12-22T06:45:32.814Z,18.85
2016-12-22T06:46:42.762Z,18.91
2016-12-22T06:47:52.715Z,18.88
2016-12-22T06:49:02.667Z,18.83
2016-12-22T06:50:12.290Z,18.89
2016-12-22T06:51:22.224Z,18.88
2016-12-22T06:52:32.495Z,18.83
2016-12-22T06:53:42.469Z,18.85
2016-12-22T06:54:52.427Z,18.82
2016-12-22T06:56:01.768Z,18.86
2016-12-22T06:57:10.792Z,18.85
2016-12-22T06:58:20.433Z,18.82
2016-12-22T06:59:30.675Z,18.89
2016-12-22T07:00:40.945Z,18.89
2016-12-22T07:01:51.254Z,18.83
2016-12-22T07:03:00.577Z,18.88
2016-12-22T07:04:10.209Z,18.86
2016-12-22T07:05:19.867Z,18.82
2016-12-22T07:06:29.845Z,18.86
2016-12-22T07:07:39.807Z,18.85
2016-12-22T07:08:50.082Z,18.82
2016-12-22T07:10:00.013Z,18.94
2016-12-22T07:11:09.055Z,18.89
2016-12-22T07:12:19.019Z,18.88
2016-12-22T07:13:29.308Z,18.85
2016-12-22T07:14:39.250Z,18.86
2016-12-22T07:15:49.531Z,18.89
2016-12-22T07:16:59.798Z,18.94
2016-12-22T07:18:09.758Z,18.89
2016-12-22T07:19:19.375Z,18.94
2016-12-22T07:20:29.326Z,18.86
2016-12-22T07:21:38.974Z,18.89
2016-12-22T07:22:49.243Z,18.89
2016-12-22T07:23:59.492Z,18.94
2016-12-22T07:25:09.752Z,18.92
2016-12-22T07:26:19.407Z,18.89
2016-12-22T07:27:29.353Z,18.98
2016-12-22T07:28:39.618Z,18.92
2016-12-22T07:29:49.872Z,18.91
2016-12-22T07:30:59.512Z,18.86
2016-12-22T07:32:09.765Z,18.91
2016-12-22T07:33:20.024Z,18.92
2016-12-22T07:34:30.300Z,18.88
2016-12-22T07:35:40.566Z,18.94
2016-12-22T07:36:50.507Z,18.85
2016-12-22T07:38:00.447Z,18.88
2016-12-22T07:39:10.402Z,18.92
2016-12-22T07:40:20.082Z,18.88
2016-12-22T07:41:30.345Z,18.94
2016-12-22T07:42:40.633Z,18.88
2016-12-22T07:43:50.660Z,18.94
2016-12-22T07:45:00.301Z,18.91
2016-12-22T07:46:10.580Z,18.96
2016-12-22T07:47:20.546Z,18.98
2016-12-22T07:48:30.171Z,18.86
2016-12-22T07:49:39.505Z,19.04
2016-12-22T07:50:49.451Z,18.96
2016-12-22T07:51:59.431Z,18.94
2016-12-22T07:53:09.377Z,19.01
2016-12-22T07:54:19.320Z,19
2016-12-22T07:55:29.272Z,19.05
2016-12-22T07:56:39.539Z,19.07
2016-12-22T07:57:49.812Z,19
2016-12-22T07:58:59.761Z,19.07
2016-12-22T08:00:10.085Z,19.01
2016-12-22T08:01:19.853Z,19.04
2016-12-22T08:02:29.520Z,19.01
2016-12-22T08:03:39.721Z,19.09
2016-12-22T08:04:49.387Z,19.09
2016-12-22T08:05:59.369Z,19.05
2016-12-22T08:07:09.670Z,19.08
2016-12-22T08:08:19.954Z,19.11
2016-12-22T08:09:29.922Z,19.08
2016-12-22T08:10:39.266Z,19.11
2016-12-22T08:11:49.595Z,19
2016-12-22T08:12:59.566Z,19.04
2016-12-22T08:14:09.548Z,19.08
2016-12-22T08:15:19.520Z,19.04
2016-12-22T08:16:29.801Z,19.04
2016-12-22T08:17:39.797Z,19.08
2016-12-22T08:18:49.961Z,19.05
2016-12-22T08:19:59.890Z,19.08
2016-12-22T08:21:09.851Z,19.07
2016-12-22T08:22:19.848Z,19.11
2016-12-22T08:23:29.821Z,19.09
2016-12-22T08:24:40.130Z,19.09
2016-12-22T08:25:50.080Z,19.08
2016-12-22T08:26:59.415Z,19.08
2016-12-22T08:28:09.050Z,19.07
2016-12-22T08:29:19.002Z,19.04
2016-12-22T08:30:29.290Z,19.08
2016-12-22T08:31:39.286Z,19.08
2016-12-22T08:32:49.554Z,19.08
2016-12-22T08:33:59.847Z,19
2016-12-22T08:35:09.791Z,19.08
2016-12-22T08:36:19.758Z,19.16
2016-12-22T08:37:29.711Z,19.08
2016-12-22T08:38:39.666Z,19.19
2016-12-22T08:39:49.614Z,19.17
2016-12-22T08:40:58.634Z,19.15
2016-12-22T08:42:08.606Z,19.07
2016-12-22T08:43:18.577Z,19.11
2016-12-22T08:44:28.515Z,19.16
2016-12-22T08:45:38.453Z,19.15
2016-12-22T08:46:48.455Z,19.2
2016-12-22T08:47:58.700Z,19.17
2016-12-22T08:49:08.670Z,19.17
2016-12-22T08:50:18.630Z,19.2
2016-12-22T08:51:28.295Z,19.23
2016-12-22T08:52:38.256Z,19.19
2016-12-22T08:53:47.884Z,19.17
2016-12-22T08:54:57.843Z,19.22
2016-12-22T08:56:07.801Z,19.24
2016-12-22T08:57:18.063Z,19.15
2016-12-22T08:58:27.389Z,19.19
2016-12-22T08:59:37.633Z,19.23
2016-12-22T09:00:47.567Z,19.26
2016-12-22T09:01:57.522Z,19.23
2016-12-22T09:03:07.463Z,19.27
2016-12-22T09:04:17.392Z,19.23
2016-12-22T09:05:27.671Z,19.24
2016-12-22T09:06:37.959Z,19.2
2016-12-22T09:07:47.591Z,19.27
2016-12-22T09:08:57.839Z,19.23
2016-12-22T09:10:08.207Z,19.24
2016-12-22T09:11:18.472Z,19.24
2016-12-22T09:12:27.506Z,19.24
2016-12-22T09:13:37.793Z,19.27
2016-12-22T09:14:48.052Z,19.29
2016-12-22T09:15:57.697Z,19.23
2016-12-22T09:17:07.957Z,19.24
2016-12-22T09:22:18.413Z,19.3
2016-12-22T09:23:28.766Z,19.34
2016-12-22T09:24:39.023Z,19.32
2016-12-22T09:25:48.974Z,19.3
2016-12-22T09:26:58.312Z,19.37
2016-12-22T09:28:08.282Z,19.27
2016-12-22T09:29:18.548Z,19.32
2016-12-22T09:30:28.820Z,19.32
2016-12-22T09:31:38.815Z,19.3
2016-12-22T09:32:49.072Z,19.37
2016-12-22T09:33:59.322Z,19.41
2016-12-22T09:35:09.586Z,19.41
2016-12-22T09:36:19.854Z,19.39
2016-12-22T09:37:30.115Z,19.37
2016-12-22T09:38:40.378Z,19.39
2016-12-22T09:39:49.712Z,19.39
2016-12-22T09:40:59.677Z,19.37
2016-12-22T09:42:09.932Z,19.42
2016-12-22T09:43:20.206Z,19.41
2016-12-22T09:44:30.156Z,19.37
2016-12-22T09:45:40.114Z,19.44
2016-12-22T09:46:50.052Z,19.39
2016-12-22T09:48:00.297Z,19.52
2016-12-22T09:49:10.257Z,19.42
2016-12-22T09:50:20.567Z,19.45
2016-12-22T09:51:31.130Z,19.44
2016-12-22T09:52:41.405Z,19.41
2016-12-22T09:53:51.670Z,19.44
2016-12-22T09:55:01.991Z,19.52
2016-12-22T09:56:12.277Z,19.41
2016-12-22T09:57:22.323Z,19.39
2016-12-22T09:58:32.288Z,19.42
2016-12-22T09:59:42.250Z,19.44
2016-12-22T10:00:51.898Z,19.52
2016-12-22T10:02:01.559Z,19.42
2016-12-22T10:03:11.842Z,19.53
2016-12-22T10:04:21.191Z,19.48
2016-12-22T10:05:31.165Z,19.49
2016-12-22T10:06:41.448Z,19.45
2016-12-22T10:07:51.771Z,19.56
2016-12-22T10:09:01.777Z,19.48
2016-12-22T10:10:12.030Z,19.52
2016-12-22T10:11:21.962Z,19.56
2016-12-22T10:12:32.239Z,19.47
2016-12-22T10:13:42.216Z,19.52
2016-12-22T10:14:51.862Z,19.57
2016-12-22T10:16:02.132Z,19.59
2016-12-22T10:17:12.513Z,19.49
2016-12-22T10:18:22.484Z,19.6
2016-12-22T10:19:32.544Z,19.49
2016-12-22T10:20:42.545Z,19.59
2016-12-22T10:21:52.511Z,19.6
2016-12-22T10:23:02.516Z,19.6
2016-12-22T10:24:12.824Z,19.59
2016-12-22T10:25:23.102Z,19.57
2016-12-22T10:26:32.757Z,19.59
2016-12-22T10:27:42.776Z,19.48
2016-12-22T10:28:52.738Z,19.62
2016-12-22T10:30:02.677Z,19.64
2016-12-22T10:31:12.675Z,19.71
2016-12-22T10:32:22.921Z,19.62
2016-12-22T10:33:32.567Z,19.74
2016-12-22T10:34:42.229Z,19.67
2016-12-22T10:35:51.574Z,19.81
2016-12-22T10:37:01.843Z,19.74
2016-12-22T10:38:12.103Z,19.66
2016-12-22T10:39:22.387Z,19.7
2016-12-22T10:40:32.650Z,19.7
2016-12-22T10:41:42.298Z,19.74
2016-12-22T10:42:51.971Z,19.66
2016-12-22T10:44:01.610Z,19.74
2016-12-22T10:45:11.879Z,19.77
2016-12-22T10:46:21.834Z,19.81
2016-12-22T10:47:31.798Z,19.87
2016-12-22T10:48:42.057Z,19.81
2016-12-22T10:49:52.009Z,19.78
2016-12-22T10:51:01.665Z,19.82
2016-12-22T10:52:11.613Z,19.84
2016-12-22T10:53:21.242Z,19.77
2016-12-22T10:54:31.193Z,19.75
2016-12-22T10:55:41.473Z,19.71
2016-12-22T10:56:51.438Z,19.89
2016-12-22T10:58:01.697Z,19.89
2016-12-22T10:59:11.332Z,19.84
2016-12-22T11:00:20.977Z,19.85
2016-12-22T11:01:31.233Z,19.89
2016-12-22T11:02:41.492Z,19.92
2016-12-22T11:03:51.767Z,19.93
2016-12-22T11:05:01.101Z,19.9
2016-12-22T11:06:10.795Z,19.96
2016-12-22T11:07:21.034Z,19.92
2016-12-22T11:08:30.360Z,19.9
2016-12-22T11:09:40.319Z,19.89
2016-12-22T11:10:49.642Z,19.84
2016-12-22T11:11:59.899Z,19.84
2016-12-22T11:13:09.858Z,19.89
2016-12-22T11:14:19.815Z,19.75
2016-12-22T11:15:29.793Z,19.75
2016-12-22T11:16:40.105Z,19.77
2016-12-22T11:17:50.090Z,19.75
2016-12-22T11:19:00.337Z,19.78
2016-12-22T11:20:10.582Z,19.79
2016-12-22T11:21:20.222Z,19.75
2016-12-22T11:22:30.477Z,19.81
2016-12-22T11:23:40.120Z,19.79
2016-12-22T11:24:49.755Z,19.79
2016-12-22T11:26:00.005Z,19.78
2016-12-22T11:27:09.957Z,19.79
2016-12-22T11:28:20.205Z,19.84
2016-12-22T11:29:30.213Z,19.89
2016-12-22T11:30:39.838Z,19.82
2016-12-22T11:31:49.784Z,19.84
2016-12-22T11:33:00.038Z,19.82
2016-12-22T11:34:09.722Z,19.71
2016-12-22T11:35:19.040Z,19.72
2016-12-22T11:36:29.301Z,19.79
2016-12-22T11:37:39.561Z,19.77
2016-12-22T11:38:49.516Z,19.77
2016-12-22T11:39:59.778Z,19.71
2016-12-22T11:41:10.072Z,19.82
2016-12-22T11:42:20.015Z,19.7
2016-12-22T11:43:29.038Z,19.66
2016-12-22T11:44:38.972Z,19.66
2016-12-22T11:45:48.988Z,19.7
2016-12-22T11:46:58.661Z,19.72
2016-12-22T11:48:08.937Z,19.72
2016-12-22T11:49:18.881Z,19.72
2016-12-22T11:50:28.823Z,19.74
2016-12-22T11:51:38.783Z,19.67
2016-12-22T11:52:48.798Z,19.7
2016-12-22T11:53:58.766Z,19.66
2016-12-22T11:55:08.712Z,19.67
2016-12-22T11:56:18.693Z,19.71
2016-12-22T11:57:28.646Z,19.72
2016-12-22T11:58:38.926Z,19.71
2016-12-22T11:59:48.890Z,19.71
2016-12-22T12:00:59.203Z,19.72
2016-12-22T12:02:08.860Z,19.71
2016-12-22T12:03:19.135Z,19.67
2016-12-22T12:04:29.413Z,19.7
2016-12-22T12:05:39.654Z,19.64
2016-12-22T12:06:49.957Z,19.7
2016-12-22T12:07:59.941Z,19.74
2016-12-22T12:09:09.902Z,19.78
2016-12-22T12:10:20.012Z,19.71
2016-12-22T12:11:29.968Z,19.7
2016-12-22T12:12:40.287Z,19.7
2016-12-22T12:13:50.598Z,19.71
2016-12-22T12:15:00.239Z,19.66
2016-12-22T12:16:10.543Z,19.64
2016-12-22T12:17:20.498Z,19.63
2016-12-22T12:18:30.779Z,19.66
2016-12-22T12:19:40.752Z,19.64
2016-12-22T12:20:50.435Z,19.67
2016-12-22T12:22:01.356Z,19.66
2016-12-22T12:23:10.995Z,19.67
2016-12-22T12:24:20.323Z,19.67
2016-12-22T12:25:30.572Z,19.74
2016-12-22T12:26:40.243Z,19.72
2016-12-22T12:27:50.529Z,19.71
2016-12-22T12:29:00.166Z,19.7
2016-12-22T12:30:09.795Z,19.66
2016-12-22T12:31:19.443Z,19.71
2016-12-22T12:32:29.712Z,19.67
2016-12-22T12:33:39.360Z,19.71
2016-12-22T12:34:48.998Z,19.7
2016-12-22T12:35:58.957Z,19.71
2016-12-22T12:37:08.918Z,19.66
2016-12-22T12:38:18.864Z,19.7
2016-12-22T12:39:29.164Z,19.64
2016-12-22T12:40:39.120Z,19.66
2016-12-22T12:41:49.376Z,19.67
2016-12-22T12:42:59.026Z,19.57
2016-12-22T12:44:08.995Z,19.67
2016-12-22T12:45:18.987Z,19.63
2016-12-22T12:46:29.258Z,19.63
2016-12-22T12:47:38.896Z,19.67
2016-12-22T12:48:49.161Z,19.67
2016-12-22T12:49:59.407Z,19.67
2016-12-22T12:51:09.109Z,19.66
2016-12-22T12:52:19.377Z,19.67
2016-12-22T12:53:29.654Z,19.64
2016-12-22T12:54:39.292Z,19.66
2016-12-22T12:55:49.568Z,19.67
2016-12-22T12:56:59.523Z,19.64
2016-12-22T12:58:09.519Z,19.66
2016-12-22T12:59:18.862Z,19.67
2016-12-22T13:00:28.509Z,19.71
2016-12-22T13:01:38.442Z,19.7
2016-12-22T13:02:48.098Z,19.72
2016-12-22T13:03:57.732Z,19.66
2016-12-22T13:05:07.983Z,19.77
2016-12-22T13:06:17.929Z,19.71
2016-12-22T13:07:27.880Z,19.74
2016-12-22T13:08:38.153Z,19.7
2016-12-22T13:09:48.434Z,19.7
2016-12-22T13:10:58.401Z,19.66
2016-12-22T13:12:08.356Z,19.66
2016-12-22T13:13:18.628Z,19.66
2016-12-22T13:14:28.583Z,19.66
2016-12-22T13:15:38.202Z,19.66
2016-12-22T13:16:47.841Z,19.66
2016-12-22T13:17:57.813Z,19.67
2016-12-22T13:19:07.476Z,19.67
2016-12-22T13:20:17.445Z,19.64
2016-12-22T13:21:27.681Z,19.63
2016-12-22T13:22:37.924Z,19.57
2016-12-22T13:23:47.868Z,19.56
2016-12-22T13:24:57.826Z,19.56
2016-12-22T13:26:07.771Z,19.64
2016-12-22T13:27:17.714Z,19.64
2016-12-22T13:28:27.992Z,19.63
2016-12-22T13:29:37.938Z,19.56
2016-12-22T13:30:47.890Z,19.62
2016-12-22T13:31:57.544Z,19.67
2016-12-22T13:33:07.205Z,19.64
2016-12-22T13:34:16.839Z,19.66
2016-12-22T13:35:26.797Z,19.57
2016-12-22T13:36:36.753Z,19.64
2016-12-22T13:37:47.023Z,19.6
2016-12-22T13:38:56.663Z,19.52
2016-12-22T13:40:06.926Z,19.6
2016-12-22T13:41:16.590Z,19.64
2016-12-22T13:42:26.549Z,19.67
2016-12-22T13:43:36.541Z,19.63
2016-12-22T13:44:46.786Z,19.63
2016-12-22T13:45:56.436Z,19.63
2016-12-22T13:47:06.385Z,19.56
2016-12-22T13:48:16.342Z,19.56
2016-12-22T13:49:25.658Z,19.62
2016-12-22T13:50:35.637Z,19.63
2016-12-22T13:51:45.260Z,19.66
2016-12-22T13:52:54.575Z,19.62
2016-12-22T13:54:04.543Z,19.57
2016-12-22T13:55:14.499Z,19.64
2016-12-22T13:56:24.450Z,19.53
2016-12-22T13:57:34.708Z,19.59
2016-12-22T13:58:44.354Z,19.55
2016-12-22T13:59:53.995Z,19.63
2016-12-22T14:01:03.632Z,19.63
2016-12-22T14:02:13.272Z,19.55
2016-12-22T14:03:23.530Z,19.6
2016-12-22T14:04:33.789Z,19.49
2016-12-22T14:05:43.415Z,19.56
2016-12-22T14:06:53.370Z,19.56
2016-12-22T14:08:03.322Z,19.57
2016-12-22T14:09:13.588Z,19.53
2016-12-22T14:10:23.582Z,19.53
2016-12-22T14:11:33.210Z,19.52
2016-12-22T14:12:43.175Z,19.56
2016-12-22T14:13:52.509Z,19.55
2016-12-22T14:15:02.775Z,19.56
2016-12-22T14:16:12.113Z,19.55
2016-12-22T14:17:21.444Z,19.59
2016-12-22T14:18:31.494Z,19.53
2016-12-22T14:19:41.465Z,19.52
2016-12-22T14:20:51.105Z,19.53
2016-12-22T14:22:00.727Z,19.49
2016-12-22T14:23:10.060Z,19.49
2016-12-22T14:24:20.006Z,19.42
2016-12-22T14:25:29.626Z,19.48
2016-12-22T14:26:39.280Z,19.56
2016-12-22T14:27:49.270Z,19.44
2016-12-22T14:28:59.217Z,19.44
2016-12-22T14:30:09.148Z,19.45
2016-12-22T14:31:19.100Z,19.45
2016-12-22T14:32:28.731Z,19.47
2016-12-22T14:33:39.006Z,19.39
2016-12-22T14:34:48.648Z,19.47
2016-12-22T14:35:58.585Z,19.47
2016-12-22T14:37:07.921Z,19.45
2016-12-22T14:38:17.867Z,19.39
2016-12-22T14:39:27.833Z,19.42
2016-12-22T14:40:37.801Z,19.49
2016-12-22T14:41:47.454Z,19.49
2016-12-22T14:42:56.781Z,19.47
2016-12-22T14:44:06.420Z,19.44
2016-12-22T14:45:16.222Z,19.42
2016-12-22T14:46:25.240Z,19.44
2016-12-22T14:47:35.483Z,19.44
2016-12-22T14:48:44.817Z,19.48
2016-12-22T14:49:55.079Z,19.41
2016-12-22T14:51:05.332Z,19.44
2016-12-22T14:52:15.283Z,19.44
2016-12-22T14:53:24.925Z,19.49
2016-12-22T14:54:34.859Z,19.48
2016-12-22T14:55:44.500Z,19.52
2016-12-22T14:56:54.435Z,19.38
2016-12-22T14:58:04.371Z,19.48
2016-12-22T14:59:14.007Z,19.48
2016-12-22T15:00:24.466Z,19.48
2016-12-22T15:01:34.719Z,19.48
2016-12-22T15:02:44.982Z,19.48
2016-12-22T15:03:54.630Z,19.48
2016-12-22T15:05:04.697Z,19.52
2016-12-22T15:06:14.644Z,19.52
2016-12-22T15:07:24.899Z,19.39